Time;durP1;ratioP1;P1;durP2;ratioP2;P2;SDS_P1;SDS_P2;PMS_P1;PMS_P2;Temp;Humidity;BMP_temperature;BMP_pressure;BME280_temperature;BME280_humidity;BME280_pressure;Samples;Min_cycle;Max_cycle;Signal;HPM_P1;HPM_P2
2023/04/23 00:01:04;;;;;;;3.03;1.50;;;17.00;99.90;;;;;;5003418;28;20214;-94
2023/04/23 00:03:37;;;;;;;4.10;2.00;;;16.90;99.90;;;;;;4998248;28;20220;-94
2023/04/23 00:06:11;;;;;;;3.83;1.80;;;17.00;99.90;;;;;;5010895;28;20206;-93
2023/04/23 00:08:43;;;;;;;3.33;1.73;;;17.00;99.90;;;;;;5019294;28;20233;-93
2023/04/23 00:11:15;;;;;;;2.63;1.53;;;16.90;99.90;;;;;;5031569;28;20213;-89
2023/04/23 00:13:48;;;;;;;2.97;1.83;;;16.90;99.90;;;;;;5014003;28;20214;-94
2023/04/23 00:16:23;;;;;;;5.83;1.73;;;16.80;99.90;;;;;;5024116;28;20205;-94
2023/04/23 00:18:55;;;;;;;3.00;1.53;;;16.70;99.90;;;;;;5031809;28;20178;-94
2023/04/23 00:21:26;;;;;;;3.13;1.60;;;16.60;99.90;;;;;;5022165;28;20213;-93
2023/04/23 00:23:57;;;;;;;3.13;1.50;;;16.50;99.90;;;;;;5023085;28;20209;-93
2023/04/23 00:26:29;;;;;;;3.33;1.70;;;16.40;99.90;;;;;;5014340;28;20206;-94
2023/04/23 00:29:00;;;;;;;4.13;1.50;;;16.40;99.90;;;;;;5016728;28;20321;-92
2023/04/23 00:31:34;;;;;;;3.70;1.50;;;16.40;99.90;;;;;;5022219;28;20279;-92
2023/04/23 00:34:06;;;;;;;3.33;1.80;;;16.30;99.90;;;;;;5013781;28;20567;-93
2023/04/23 00:36:37;;;;;;;3.07;1.60;;;16.30;99.90;;;;;;5005441;28;20241;-93
2023/04/23 00:39:10;;;;;;;4.73;1.73;;;16.20;99.90;;;;;;5008261;28;20202;-93
2023/04/23 00:41:43;;;;;;;6.83;1.93;;;16.20;99.90;;;;;;5019287;28;20216;-94
2023/04/23 00:44:15;;;;;;;3.00;1.40;;;16.10;99.90;;;;;;4670696;28;10001368;-95
2023/04/23 00:46:49;;;;;;;3.77;1.53;;;16.10;99.90;;;;;;5022183;28;20210;-96
2023/04/23 00:49:22;;;;;;;2.80;1.60;;;16.20;99.90;;;;;;5022333;28;20244;-85
2023/04/23 00:51:53;;;;;;;5.20;1.40;;;16.20;99.90;;;;;;5013506;28;20243;-91
2023/04/23 00:54:24;;;;;;;4.30;1.60;;;16.20;99.90;;;;;;5006625;28;20721;-89
2023/04/23 00:56:56;;;;;;;3.23;1.50;;;16.30;99.90;;;;;;5014271;28;20210;-90
2023/04/23 00:59:29;;;;;;;3.83;2.07;;;16.30;99.90;;;;;;5018381;28;20737;-90
2023/04/23 01:02:03;;;;;;;4.20;2.10;;;16.40;99.90;;;;;;5012368;28;20256;-89
2023/04/23 01:04:36;;;;;;;4.90;1.90;;;16.40;99.90;;;;;;5008371;28;20209;-88
2023/04/23 01:07:07;;;;;;;3.93;1.80;;;16.20;99.90;;;;;;5014878;28;20670;-89
2023/04/23 01:09:39;;;;;;;3.17;1.50;;;16.20;99.90;;;;;;5018495;28;20229;-88
2023/04/23 01:12:11;;;;;;;3.53;1.93;;;16.10;99.90;;;;;;5000659;28;20216;-89
2023/04/23 01:14:44;;;;;;;4.57;2.20;;;16.10;99.90;;;;;;5024303;28;20202;-92
2023/04/23 01:17:17;;;;;;;3.20;1.77;;;16.00;99.90;;;;;;5014235;28;20218;-92
2023/04/23 01:19:48;;;;;;;3.57;1.80;;;15.80;99.90;;;;;;5037987;28;20201;-92
2023/04/23 01:22:22;;;;;;;4.23;1.60;;;15.80;99.90;;;;;;5026996;28;20272;-91
2023/04/23 01:24:54;;;;;;;6.20;2.00;;;15.70;99.90;;;;;;5016289;28;20208;-92
2023/04/23 01:27:26;;;;;;;5.03;1.90;;;15.70;99.90;;;;;;5010794;28;20205;-91
2023/04/23 01:29:58;;;;;;;5.53;1.87;;;15.80;99.90;;;;;;5013429;28;20280;-90
2023/04/23 01:32:29;;;;;;;3.40;1.70;;;15.70;99.90;;;;;;5015416;28;20208;-90
2023/04/23 01:35:00;;;;;;;2.73;1.50;;;15.60;99.90;;;;;;5021473;28;20228;-91
2023/04/23 01:37:34;;;;;;;3.70;2.00;;;15.60;99.90;;;;;;5020852;28;20201;-90
2023/04/23 01:40:06;;;;;;;4.87;1.97;;;15.50;99.90;;;;;;5016026;28;20279;-91
2023/04/23 01:42:37;;;;;;;2.93;1.70;;;15.40;99.90;;;;;;5001372;28;20213;-90
2023/04/23 01:45:10;;;;;;;6.23;2.07;;;15.50;99.90;;;;;;5028668;28;20181;-91
2023/04/23 01:47:42;;;;;;;3.80;1.93;;;15.40;99.90;;;;;;5037536;28;20213;-89
2023/04/23 01:50:13;;;;;;;3.90;1.90;;;15.40;99.90;;;;;;5040867;28;20248;-89
2023/04/23 01:52:46;;;;;;;3.70;1.80;;;15.30;99.90;;;;;;5013262;28;20205;-89
2023/04/23 01:55:17;;;;;;;3.03;1.80;;;15.30;99.90;;;;;;5030152;28;20205;-91
2023/04/23 01:57:50;;;;;;;6.50;2.30;;;15.30;99.90;;;;;;5020540;28;20364;-92
2023/04/23 02:00:21;;;;;;;7.23;2.20;;;15.40;99.90;;;;;;5002414;28;20272;-92
2023/04/23 02:02:52;;;;;;;5.67;2.00;;;15.30;99.90;;;;;;5016478;28;20201;-92
2023/04/23 02:05:25;;;;;;;3.23;1.80;;;15.20;99.90;;;;;;5013081;28;20654;-93
2023/04/23 02:07:58;;;;;;;2.83;1.83;;;15.20;99.90;;;;;;5013994;28;20209;-91
2023/04/23 02:10:31;;;;;;;3.77;2.00;;;15.10;99.90;;;;;;5012562;28;20244;-91
2023/04/23 02:13:03;;;;;;;5.53;2.00;;;15.10;99.90;;;;;;5014254;28;20654;-93
2023/04/23 02:15:34;;;;;;;3.53;1.90;;;15.00;99.90;;;;;;5020559;28;20217;-91
2023/04/23 02:18:06;;;;;;;5.70;2.40;;;15.00;99.90;;;;;;5011051;28;20256;-96
2023/04/23 02:20:40;;;;;;;6.17;2.50;;;14.90;99.90;;;;;;5019968;28;20283;-95
2023/04/23 02:23:14;;;;;;;5.57;2.60;;;14.90;99.90;;;;;;5011656;28;20209;-92
2023/04/23 02:25:45;;;;;;;4.17;2.23;;;14.90;99.90;;;;;;5026141;28;20679;-92
2023/04/23 02:28:17;;;;;;;4.07;2.27;;;14.80;99.90;;;;;;5021355;28;20201;-90
2023/04/23 02:30:48;;;;;;;5.90;2.60;;;14.70;99.90;;;;;;5026686;28;20536;-95
2023/04/23 02:33:20;;;;;;;6.10;2.70;;;14.60;99.90;;;;;;5018885;28;20255;-95
2023/04/23 02:35:51;;;;;;;6.63;2.53;;;14.60;99.90;;;;;;5026801;28;20210;-91
2023/04/23 02:38:25;;;;;;;5.00;2.53;;;14.40;99.90;;;;;;5024313;28;20220;-92
2023/04/23 02:40:56;;;;;;;6.33;2.80;;;14.30;99.90;;;;;;5029166;28;20283;-91
2023/04/23 02:43:27;;;;;;;5.23;2.37;;;14.20;99.90;;;;;;5018618;28;20202;-89
2023/04/23 02:45:58;;;;;;;7.50;2.77;;;14.10;99.90;;;;;;5016726;28;20286;-91
2023/04/23 02:48:29;;;;;;;5.20;2.67;;;13.90;99.90;;;;;;5021411;28;20205;-92
2023/04/23 02:51:01;;;;;;;7.90;3.40;;;13.60;99.90;;;;;;5020573;28;20237;-94
2023/04/23 02:53:34;;;;;;;11.53;3.40;;;13.50;99.90;;;;;;5018738;28;20248;-90
2023/04/23 02:56:06;;;;;;;11.80;3.37;;;13.30;99.90;;;;;;5020845;28;20202;-90
2023/04/23 02:58:36;;;;;;;6.73;3.27;;;13.20;99.90;;;;;;5016644;28;20209;-90
2023/04/23 03:01:08;;;;;;;9.80;3.80;;;13.00;99.90;;;;;;5018872;28;20271;-91
2023/04/23 03:03:39;;;;;;;5.17;3.40;;;13.00;99.90;;;;;;5029950;28;20217;-94
2023/04/23 03:06:11;;;;;;;6.80;3.20;;;12.90;99.90;;;;;;5025840;28;20232;-92
2023/04/23 03:08:44;;;;;;;6.50;4.00;;;12.80;99.90;;;;;;5032445;28;20663;-90
2023/04/23 03:11:16;;;;;;;8.43;4.67;;;12.80;99.90;;;;;;5007644;28;20252;-94
2023/04/23 03:13:47;;;;;;;6.93;3.70;;;12.80;99.90;;;;;;5025477;28;20235;-91
2023/04/23 03:16:18;;;;;;;8.00;4.20;;;12.70;99.90;;;;;;5043430;28;20197;-89
2023/04/23 03:18:49;;;;;;;8.13;4.70;;;12.60;99.90;;;;;;5029200;28;20216;-91
2023/04/23 03:21:21;;;;;;;11.47;4.63;;;12.60;99.90;;;;;;5023854;28;20524;-91
2023/04/23 03:23:55;;;;;;;13.90;5.57;;;12.50;99.90;;;;;;5037022;28;20204;-92
2023/04/23 03:26:26;;;;;;;8.90;5.13;;;12.50;99.90;;;;;;5036407;28;20273;-92
2023/04/23 03:28:58;;;;;;;9.97;4.70;;;12.50;99.90;;;;;;5019211;28;20216;-91
2023/04/23 03:31:30;;;;;;;6.60;5.13;;;12.50;99.90;;;;;;5022589;28;20320;-90
2023/04/23 03:34:02;;;;;;;10.03;5.57;;;12.50;99.90;;;;;;5030643;28;20288;-91
2023/04/23 03:36:33;;;;;;;7.63;4.83;;;12.50;99.90;;;;;;5019184;28;20225;-90
2023/04/23 03:39:06;;;;;;;8.43;4.60;;;12.50;99.90;;;;;;5018685;28;20260;-88
2023/04/23 03:41:37;;;;;;;8.93;4.73;;;12.50;99.90;;;;;;5018197;28;20205;-89
2023/04/23 03:44:09;;;;;;;9.37;5.70;;;12.50;99.90;;;;;;5020457;28;20260;-88
2023/04/23 03:46:40;;;;;;;5.37;3.97;;;12.60;99.90;;;;;;5020421;28;20209;-89
2023/04/23 03:49:11;;;;;;;7.27;4.73;;;12.60;99.90;;;;;;5019991;28;20198;-88
2023/04/23 03:51:42;;;;;;;10.73;4.67;;;12.50;99.90;;;;;;5021685;28;20626;-89
2023/04/23 03:54:15;;;;;;;10.93;4.83;;;12.50;99.90;;;;;;5021857;28;20572;-88
2023/04/23 03:56:45;;;;;;;6.47;4.77;;;12.40;99.90;;;;;;5021036;28;20268;-88
2023/04/23 03:59:17;;;;;;;8.43;4.57;;;12.40;99.90;;;;;;5023516;28;20229;-88
2023/04/23 04:01:48;;;;;;;9.37;4.57;;;12.40;99.90;;;;;;5003061;28;20213;-88
2023/04/23 04:04:20;;;;;;;8.97;4.17;;;12.40;99.90;;;;;;5016370;28;20202;-89
2023/04/23 04:06:51;;;;;;;6.50;4.10;;;12.40;99.90;;;;;;5016327;28;20566;-89
2023/04/23 04:09:24;;;;;;;6.03;4.30;;;12.50;99.90;;;;;;5012413;28;20205;-89
2023/04/23 04:11:55;;;;;;;10.20;4.30;;;12.50;99.90;;;;;;5015859;28;20768;-90
2023/04/23 04:14:26;;;;;;;7.13;4.33;;;12.40;99.90;;;;;;5009312;28;20210;-88
2023/04/23 04:16:57;;;;;;;7.20;4.13;;;12.50;99.90;;;;;;5001239;28;20206;-89
2023/04/23 04:19:28;;;;;;;7.93;4.37;;;12.50;99.90;;;;;;5011729;28;20205;-89
2023/04/23 04:22:01;;;;;;;6.20;4.17;;;12.40;99.90;;;;;;5017627;28;20751;-88
2023/04/23 04:24:34;;;;;;;8.10;4.47;;;12.40;99.90;;;;;;5013678;28;20240;-89
2023/04/23 04:27:06;;;;;;;8.43;4.30;;;12.50;99.90;;;;;;5018661;28;20214;-87
2023/04/23 04:29:39;;;;;;;6.70;4.70;;;12.50;99.90;;;;;;5002786;28;20210;-90
2023/04/23 04:32:12;;;;;;;7.10;4.50;;;12.40;99.90;;;;;;5017459;28;20313;-93
2023/04/23 04:45:09;;;;;;;7.53;5.23;;;12.50;99.90;;;;;;5022878;28;20229;-96
2023/04/23 04:47:42;;;;;;;9.83;6.00;;;12.50;99.90;;;;;;5033609;28;20232;-96
2023/04/23 04:50:15;;;;;;;11.20;5.60;;;12.50;99.90;;;;;;5049143;28;20220;-96
2023/04/23 04:52:47;;;;;;;7.63;5.43;;;12.40;99.90;;;;;;5044632;28;20213;-96
2023/04/23 04:55:19;;;;;;;10.90;6.13;;;12.40;99.90;;;;;;5031051;28;20206;-96
2023/04/23 04:57:52;;;;;;;8.10;5.20;;;12.40;99.90;;;;;;5028360;28;20201;-96
2023/04/23 05:03:17;;;;;;;8.63;6.30;;;12.50;99.90;;;;;;5025845;28;20209;-96
2023/04/23 05:06:05;;;;;;;9.77;6.10;;;12.50;99.90;;;;;;5030897;28;20205;-96
2023/04/23 05:08:41;;;;;;;11.60;5.70;;;12.50;99.90;;;;;;5033045;28;20256;-96
2023/04/23 05:11:16;;;;;;;9.33;5.80;;;12.40;99.90;;;;;;5021070;28;20233;-96
2023/04/23 05:34:32;;;;;;;9.77;6.10;;;12.50;99.90;;;;;;5014899;28;20306;-96
2023/04/23 05:37:05;;;;;;;8.47;6.30;;;12.60;99.90;;;;;;5017642;28;20210;-96
2023/04/23 05:39:38;;;;;;;12.53;6.47;;;12.60;99.90;;;;;;5016657;28;20348;-96
2023/04/23 05:42:12;;;;;;;10.90;6.03;;;12.50;99.90;;;;;;5017441;28;20208;-96
2023/04/23 05:44:45;;;;;;;9.97;6.30;;;12.40;99.90;;;;;;5015560;28;20206;-96
2023/04/23 05:47:20;;;;;;;9.57;6.60;;;12.40;99.90;;;;;;5015846;28;20279;-96
2023/04/23 05:49:58;;;;;;;10.20;6.93;;;12.30;99.90;;;;;;5015173;28;20289;-96
2023/04/23 05:52:32;;;;;;;10.33;7.77;;;12.30;99.90;;;;;;5017507;28;20268;-96
2023/04/23 05:55:04;;;;;;;12.83;8.00;;;12.30;99.90;;;;;;5017116;28;20191;-96
2023/04/23 06:19:02;;;;;;;7.50;5.50;;;12.30;99.90;;;;;;5013742;28;20253;-96
2023/04/23 06:38:20;;;;;;;7.13;5.70;;;12.30;99.90;;;;;;5015751;28;20182;-96
2023/04/23 06:46:16;;;;;;;10.30;6.70;;;12.30;99.90;;;;;;5056527;22;20300;-96
2023/04/23 06:48:50;;;;;;;10.50;6.00;;;12.30;99.90;;;;;;5036608;28;20205;-95
2023/04/23 06:51:23;;;;;;;8.27;5.70;;;12.30;99.90;;;;;;5037221;28;20244;-96
2023/04/23 07:23:34;;;;;;;11.43;7.97;;;12.10;99.90;;;;;;5824172;23;20249;-96
2023/04/23 07:26:08;;;;;;;10.43;8.20;;;12.00;99.90;;;;;;5000427;28;20226;-93
2023/04/23 07:39:08;;;;;;;7.00;5.70;;;12.00;99.90;;;;;;5036190;28;20220;-96
2023/04/23 07:41:40;;;;;;;8.23;5.90;;;12.00;99.90;;;;;;5037524;28;20213;-96
2023/04/23 07:44:13;;;;;;;9.83;6.20;;;12.00;99.90;;;;;;5037293;28;20213;-96
2023/04/23 08:03:30;;;;;;;11.47;5.83;;;12.00;99.90;;;;;;4998157;28;20266;-96
2023/04/23 08:06:03;;;;;;;10.00;5.87;;;12.00;99.90;;;;;;4999787;28;20207;-96
2023/04/23 08:08:36;;;;;;;7.73;5.20;;;11.90;99.90;;;;;;5000019;28;20221;-96
2023/04/23 08:11:10;;;;;;;7.47;5.20;;;11.90;99.90;;;;;;4992866;28;20223;-96
2023/04/23 09:45:55;;;;;;;5.10;3.83;;;11.80;99.90;;;;;;5015004;28;20245;-96
2023/04/23 09:48:41;;;;;;;3.97;3.00;;;11.80;99.90;;;;;;5016695;28;20240;-96
2023/04/23 09:51:16;;;;;;;4.13;3.37;;;11.80;99.90;;;;;;5014320;28;20229;-96
2023/04/23 09:53:49;;;;;;;4.30;3.20;;;11.90;99.90;;;;;;5016676;28;20206;-96
2023/04/23 10:01:49;;;;;;;2.97;2.63;;;11.90;99.90;;;;;;5348522;23;20264;-96
2023/04/23 10:04:23;;;;;;;3.80;3.23;;;11.90;99.90;;;;;;5016767;28;20282;-96
2023/04/23 10:06:56;;;;;;;3.03;2.73;;;11.80;99.90;;;;;;5016753;28;20215;-96
2023/04/23 10:09:49;;;;;;;3.67;2.90;;;11.80;99.90;;;;;;5004201;28;20196;-96
2023/04/23 10:12:24;;;;;;;4.47;2.93;;;11.80;99.90;;;;;;5016796;28;20222;-96
2023/04/23 10:15:17;;;;;;;4.70;2.60;;;11.90;99.90;;;;;;5015470;28;20217;-96
2023/04/23 10:28:44;;;;;;;5.53;3.70;;;11.80;99.90;;;;;;5649728;23;20250;-96
2023/04/23 10:31:16;;;;;;;4.40;3.23;;;11.80;99.90;;;;;;5016950;28;20213;-96
2023/04/23 10:33:50;;;;;;;4.23;3.13;;;11.80;99.90;;;;;;5016109;28;20234;-96
2023/04/23 10:36:29;;;;;;;3.43;2.90;;;11.70;99.90;;;;;;5017443;28;20194;-96
2023/04/23 10:39:03;;;;;;;4.13;3.03;;;11.70;99.90;;;;;;5016548;28;20225;-96
2023/04/23 10:41:39;;;;;;;3.10;2.40;;;11.70;99.90;;;;;;5016670;28;20202;-96
2023/04/23 13:30:37;;;;;;;1.43;0.40;;;10.50;99.90;;;;;;4954937;29;20243;-96
2023/04/23 13:36:42;;;;;;;0.50;0.40;;;10.50;99.90;;;;;;4955811;29;20219;-96
2023/04/23 13:39:42;;;;;;;0.20;0.20;;;10.40;99.90;;;;;;4939374;29;20630;-96
2023/04/23 13:42:16;;;;;;;0.50;0.30;;;10.40;99.90;;;;;;4968829;29;20243;-96
2023/04/23 13:44:50;;;;;;;0.93;0.40;;;10.40;99.90;;;;;;4975046;28;20208;-96
2023/04/23 13:47:30;;;;;;;0.30;0.30;;;10.40;99.90;;;;;;4975009;28;20274;-96
2023/04/23 13:56:58;;;;;;;0.30;0.30;;;10.20;99.90;;;;;;4970144;28;20886;-96
2023/04/23 13:59:39;;;;;;;0.20;0.20;;;10.20;99.90;;;;;;4953720;28;20279;-95
2023/04/23 14:02:12;;;;;;;0.77;0.30;;;10.20;99.90;;;;;;4950834;29;20272;-96
2023/04/23 14:04:48;;;;;;;0.33;0.27;;;10.20;99.90;;;;;;4951649;28;20208;-96
2023/04/23 14:07:25;;;;;;;0.20;0.20;;;10.10;99.90;;;;;;4945944;29;20210;-95
2023/04/23 14:10:00;;;;;;;0.30;0.30;;;10.20;99.90;;;;;;4949991;29;20252;-96
2023/04/23 14:12:48;;;;;;;0.40;0.20;;;10.10;99.90;;;;;;4964101;28;20227;-96
2023/04/23 14:15:34;;;;;;;0.43;0.20;;;10.00;99.90;;;;;;4947575;29;20295;-96
2023/04/23 14:18:06;;;;;;;0.27;0.23;;;10.00;99.90;;;;;;4964135;28;20263;-96
2023/04/23 14:20:40;;;;;;;0.73;0.20;;;10.00;99.90;;;;;;4966227;28;20239;-96
2023/04/23 14:24:12;;;;;;;0.20;0.20;;;10.00;99.90;;;;;;4957991;29;20208;-96
2023/04/23 14:29:47;;;;;;;1.27;0.50;;;9.90;99.90;;;;;;4900300;29;20233;-96
2023/04/23 14:32:25;;;;;;;1.43;0.30;;;9.90;99.90;;;;;;4967278;28;20196;-96
2023/04/23 14:38:10;;;;;;;0.40;0.40;;;9.70;99.90;;;;;;4957456;28;20208;-96
2023/04/23 14:40:43;;;;;;;0.20;0.20;;;9.80;99.90;;;;;;4959174;29;20212;-96
2023/04/23 14:43:28;;;;;;;0.83;0.30;;;9.80;99.90;;;;;;4951787;29;20203;-96
2023/04/23 14:49:11;;;;;;;0.10;0.10;;;9.80;99.90;;;;;;4957564;28;20224;-96
2023/04/23 14:52:03;;;;;;;0.93;0.30;;;9.80;99.90;;;;;;4955230;29;20207;-96
2023/04/23 14:55:19;;;;;;;0.40;0.30;;;9.80;99.90;;;;;;4956840;28;20306;-96
2023/04/23 14:58:12;;;;;;;1.00;0.40;;;9.80;99.90;;;;;;4952876;29;20214;-96
2023/04/23 15:00:45;;;;;;;0.40;0.40;;;9.80;99.90;;;;;;4949590;29;20213;-96
2023/04/23 15:03:41;;;;;;;0.30;0.27;;;9.80;99.90;;;;;;4952991;29;20323;-96
2023/04/23 15:06:32;;;;;;;0.63;0.30;;;9.60;99.90;;;;;;4947008;29;20223;-96
2023/04/23 15:09:08;;;;;;;0.40;0.17;;;9.80;99.90;;;;;;4959063;29;20204;-96
2023/04/23 15:12:09;;;;;;;0.20;0.20;;;9.60;99.90;;;;;;4949190;29;20219;-96
2023/04/23 15:18:04;;;;;;;0.57;0.13;;;9.60;99.90;;;;;;4935086;29;20284;-95
2023/04/23 15:20:37;;;;;;;0.27;0.20;;;9.50;99.90;;;;;;4943199;29;20204;-96
2023/04/23 15:23:12;;;;;;;0.50;0.23;;;9.50;99.90;;;;;;4958257;29;20220;-96
2023/04/23 15:25:50;;;;;;;0.47;0.33;;;9.50;99.90;;;;;;4957424;29;20655;-96
2023/04/23 15:28:25;;;;;;;0.60;0.20;;;9.50;99.90;;;;;;4958511;28;20216;-95
2023/04/23 15:31:01;;;;;;;1.90;0.37;;;9.40;99.90;;;;;;4949245;29;20231;-96
2023/04/23 15:33:33;;;;;;;0.60;0.47;;;9.40;99.90;;;;;;4943047;29;20231;-96
2023/04/23 15:36:06;;;;;;;0.63;0.30;;;9.30;99.90;;;;;;4943781;29;20212;-96
2023/04/23 15:44:04;;;;;;;0.27;0.27;;;9.40;99.90;;;;;;5585578;23;20291;-95
2023/04/23 15:46:39;;;;;;;0.27;0.20;;;9.30;99.90;;;;;;4968175;28;20215;-96
2023/04/23 15:49:12;;;;;;;0.87;0.30;;;9.30;99.90;;;;;;4952413;29;20211;-96
2023/04/23 15:51:50;;;;;;;0.77;0.30;;;9.30;99.90;;;;;;4951521;29;20216;-96
2023/04/23 15:54:27;;;;;;;0.27;0.20;;;9.30;99.90;;;;;;4955107;29;20247;-96
2023/04/23 16:07:25;;;;;;;0.10;0.10;;;9.20;99.90;;;;;;4900905;29;20225;-96
2023/04/23 16:16:45;;;;;;;0.73;0.30;;;9.20;99.90;;;;;;4897087;29;20206;-96
2023/04/23 16:19:18;;;;;;;0.20;0.20;;;9.20;99.90;;;;;;4891932;29;20273;-96
2023/04/23 16:38:19;;;;;;;2.97;0.30;;;9.20;99.90;;;;;;5053495;27;2682152;-95
2023/04/23 16:52:33;;;;;;;1.87;0.60;;;9.30;99.90;;;;;;5037980;28;20220;-96
2023/04/23 16:55:09;;;;;;;1.63;0.70;;;9.30;99.90;;;;;;5029468;28;20210;-96
2023/04/23 16:57:44;;;;;;;3.00;0.90;;;9.40;99.90;;;;;;5016782;28;20291;-96
2023/04/23 17:05:39;;;;;;;5.77;1.33;;;9.20;99.90;;;;;;5251094;23;20253;-96
2023/04/23 17:11:19;;;;;;;7.10;1.60;;;9.50;99.90;;;;;;5023399;28;20192;-96
2023/04/23 17:19:11;;;;;;;5.07;1.57;;;9.60;99.90;;;;;;5130810;23;20261;-96
2023/04/23 17:26:00;;;;;;;5.63;1.50;;;9.60;99.90;;;;;;4997240;28;20217;-94
2023/04/23 17:28:35;;;;;;;7.37;2.00;;;9.80;99.90;;;;;;5004809;28;20217;-96
2023/04/23 17:31:10;;;;;;;10.60;2.27;;;10.00;99.90;;;;;;5351852;23;20273;-96
2023/04/23 17:47:12;;;;;;;11.23;3.10;;;9.90;99.90;;;;;;5054051;23;20346;-96
2023/04/23 17:49:45;;;;;;;9.90;2.87;;;9.90;99.90;;;;;;4998892;28;20278;-96
2023/04/23 17:52:39;;;;;;;16.37;3.20;;;9.80;99.90;;;;;;4983840;28;20199;-96
2023/04/23 17:55:12;;;;;;;12.57;3.83;;;9.90;99.90;;;;;;4992436;28;20636;-96
2023/04/23 17:57:45;;;;;;;16.97;3.47;;;10.20;99.90;;;;;;4999256;28;20202;-96
2023/04/23 18:00:18;;;;;;;15.87;3.47;;;10.40;99.90;;;;;;4999539;28;20199;-96
2023/04/23 18:02:56;;;;;;;19.07;3.97;;;10.80;99.90;;;;;;4999632;28;20198;-96
2023/04/23 18:08:05;;;;;;;14.77;3.50;;;11.00;99.90;;;;;;5407542;23;20234;-96
2023/04/23 18:10:39;;;;;;;11.73;3.23;;;11.10;99.90;;;;;;4980742;28;20219;-96
2023/04/23 18:18:37;;;;;;;13.63;3.07;;;10.90;99.90;;;;;;5600234;23;20262;-96
2023/04/23 18:51:15;;;;;;;8.77;2.50;;;11.30;99.90;;;;;;5037622;23;20249;-96
2023/04/23 18:53:49;;;;;;;9.73;2.33;;;11.30;99.90;;;;;;4994279;28;20237;-96
2023/04/23 18:56:24;;;;;;;12.30;2.90;;;11.40;99.90;;;;;;4997464;28;20223;-96
2023/04/23 18:58:56;;;;;;;11.03;2.80;;;11.60;99.90;;;;;;4997379;28;20209;-96
2023/04/23 19:01:29;;;;;;;14.40;3.03;;;11.70;99.90;;;;;;4985462;28;20222;-96
2023/04/23 19:04:04;;;;;;;15.43;2.87;;;11.50;99.90;;;;;;4996271;28;20236;-95
2023/04/23 19:06:40;;;;;;;10.40;2.70;;;11.30;99.90;;;;;;4992335;28;20259;-96
2023/04/23 19:09:12;;;;;;;11.90;2.77;;;11.20;99.90;;;;;;4986931;28;20206;-96
2023/04/23 19:11:44;;;;;;;11.57;3.30;;;10.90;99.90;;;;;;4993355;28;20238;-96
2023/04/23 19:14:20;;;;;;;10.20;2.67;;;11.00;99.90;;;;;;5079766;23;20225;-96
2023/04/23 19:16:53;;;;;;;12.93;3.60;;;11.10;99.90;;;;;;4972464;28;20200;-96
2023/04/23 19:22:06;;;;;;;9.13;2.50;;;11.10;99.90;;;;;;5016099;23;20246;-95
2023/04/23 19:24:38;;;;;;;13.00;2.80;;;11.00;99.90;;;;;;4997075;28;20226;-96
2023/04/23 19:27:11;;;;;;;11.63;2.50;;;10.90;99.90;;;;;;4990495;28;20265;-96
2023/04/23 19:29:44;;;;;;;8.03;2.33;;;11.00;99.90;;;;;;4976937;28;20254;-88
2023/04/23 19:32:15;;;;;;;15.50;4.00;;;11.10;99.90;;;;;;4974181;28;20202;-88
2023/04/23 19:34:47;;;;;;;9.73;2.70;;;11.00;99.90;;;;;;4969139;28;20215;-91
2023/04/23 19:37:28;;;;;;;15.23;3.57;;;11.00;99.90;;;;;;4972945;28;20211;-96
2023/04/23 19:39:59;;;;;;;15.93;4.00;;;11.00;99.90;;;;;;4970491;28;20714;-92
2023/04/23 19:42:31;;;;;;;12.20;2.20;;;10.90;99.90;;;;;;4971520;28;20286;-90
2023/04/23 19:45:02;;;;;;;11.90;2.80;;;10.70;99.90;;;;;;4962745;28;20211;-92
2023/04/23 19:47:37;;;;;;;13.87;2.80;;;10.80;99.90;;;;;;4970958;28;20234;-91
2023/04/23 19:50:11;;;;;;;13.33;2.53;;;11.00;99.90;;;;;;4976334;28;20233;-93
2023/04/23 19:52:45;;;;;;;14.77;2.83;;;11.10;99.90;;;;;;4973628;28;20214;-92
2023/04/23 19:55:20;;;;;;;10.57;2.90;;;11.10;99.90;;;;;;4976184;28;20218;-93
2023/04/23 19:57:54;;;;;;;14.17;2.60;;;11.10;99.90;;;;;;4973196;28;20293;-93
2023/04/23 20:00:29;;;;;;;9.63;2.30;;;11.20;99.90;;;;;;4963659;28;20263;-93
2023/04/23 20:03:01;;;;;;;13.23;3.13;;;11.40;99.90;;;;;;4975761;28;20211;-92
2023/04/23 20:05:33;;;;;;;11.53;3.33;;;11.30;99.90;;;;;;4960788;28;20211;-92
2023/04/23 20:08:13;;;;;;;11.40;2.87;;;11.60;99.90;;;;;;4972769;28;20288;-95
2023/04/23 20:10:45;;;;;;;17.23;2.70;;;11.70;99.90;;;;;;4978668;28;20677;-90
2023/04/23 20:13:17;;;;;;;10.03;2.50;;;11.90;99.90;;;;;;4975118;28;20203;-90
2023/04/23 20:15:49;;;;;;;14.20;3.33;;;11.80;99.90;;;;;;4975873;28;20617;-90
2023/04/23 20:18:20;;;;;;;13.37;3.03;;;11.80;99.90;;;;;;4975366;28;20613;-90
2023/04/23 20:20:52;;;;;;;11.87;3.00;;;12.10;99.90;;;;;;4970086;28;20211;-90
2023/04/23 20:23:26;;;;;;;9.80;2.90;;;12.10;99.90;;;;;;4974680;28;20704;-91
2023/04/23 20:25:58;;;;;;;10.97;2.70;;;12.20;99.90;;;;;;4975576;28;20262;-90
2023/04/23 20:28:29;;;;;;;11.33;2.27;;;12.00;99.90;;;;;;4974984;28;20313;-90
2023/04/23 20:31:01;;;;;;;11.20;2.27;;;12.10;99.90;;;;;;4976850;28;20214;-90
2023/04/23 20:33:33;;;;;;;11.87;2.37;;;12.30;99.90;;;;;;4976454;28;20221;-91
2023/04/23 20:36:05;;;;;;;10.00;3.03;;;12.40;99.90;;;;;;4956757;29;20215;-91
2023/04/23 20:38:39;;;;;;;10.50;2.80;;;12.50;99.90;;;;;;4957720;28;20212;-90
2023/04/23 20:41:11;;;;;;;11.97;2.40;;;12.00;99.90;;;;;;4973326;28;20298;-90
2023/04/23 20:43:44;;;;;;;10.60;2.63;;;12.20;99.90;;;;;;4976512;28;20677;-91
2023/04/23 20:46:16;;;;;;;11.47;2.53;;;12.10;99.90;;;;;;4982942;28;20222;-90
2023/04/23 20:48:51;;;;;;;14.90;3.07;;;12.00;99.90;;;;;;4993766;28;20246;-91
2023/04/23 20:51:24;;;;;;;16.97;3.13;;;11.60;99.90;;;;;;4995186;28;20234;-91
2023/04/23 20:53:58;;;;;;;7.27;2.50;;;11.80;99.90;;;;;;4978579;28;20290;-91
2023/04/23 20:56:30;;;;;;;14.53;3.77;;;12.00;99.90;;;;;;4977138;28;20209;-90
2023/04/23 20:59:02;;;;;;;8.90;2.80;;;12.00;99.90;;;;;;4975915;28;20219;-90
2023/04/23 21:01:33;;;;;;;14.00;2.83;;;11.90;99.90;;;;;;4976256;28;20215;-90
2023/04/23 21:04:05;;;;;;;15.60;3.10;;;11.90;99.90;;;;;;4975392;28;20207;-91
2023/04/23 21:06:36;;;;;;;9.17;2.83;;;11.80;99.90;;;;;;4975044;28;20203;-91
2023/04/23 21:09:10;;;;;;;12.03;2.90;;;11.50;99.90;;;;;;4973931;28;20231;-90
2023/04/23 21:11:42;;;;;;;12.53;2.50;;;11.50;99.90;;;;;;4975737;28;20215;-90
2023/04/23 21:14:14;;;;;;;12.77;2.50;;;11.40;99.90;;;;;;4979147;28;20261;-89
2023/04/23 21:16:45;;;;;;;11.73;3.27;;;11.50;99.90;;;;;;4980073;28;20600;-89
2023/04/23 21:19:17;;;;;;;9.97;2.40;;;11.50;99.90;;;;;;4978035;28;20214;-90
2023/04/23 21:21:48;;;;;;;12.13;3.70;;;11.80;99.90;;;;;;4978375;28;20278;-90
2023/04/23 21:24:21;;;;;;;9.63;2.90;;;12.10;99.90;;;;;;4978788;28;20226;-90
2023/04/23 21:26:53;;;;;;;11.23;2.73;;;12.20;99.90;;;;;;4978253;28;20243;-90
2023/04/23 21:29:25;;;;;;;10.43;3.07;;;12.10;99.90;;;;;;4977716;28;20244;-91
2023/04/23 21:31:56;;;;;;;11.47;3.17;;;12.20;99.90;;;;;;4978988;28;20218;-89
2023/04/23 21:34:28;;;;;;;12.90;3.10;;;12.10;99.90;;;;;;4981080;28;20212;-89
2023/04/23 21:36:59;;;;;;;10.73;3.47;;;11.80;99.90;;;;;;4958671;29;20559;-90
2023/04/23 21:39:35;;;;;;;11.43;2.73;;;11.70;99.90;;;;;;4972579;28;20302;-91
2023/04/23 21:42:06;;;;;;;11.57;3.47;;;11.60;99.90;;;;;;5011580;28;20198;-91
2023/04/23 21:44:39;;;;;;;13.03;3.97;;;11.50;99.90;;;;;;4982190;28;20233;-90
2023/04/23 21:47:11;;;;;;;12.30;3.43;;;11.70;99.90;;;;;;4981307;28;20214;-90
2023/04/23 21:49:42;;;;;;;12.43;3.20;;;12.00;99.90;;;;;;4978085;28;20362;-90
2023/04/23 21:52:16;;;;;;;16.00;3.33;;;11.90;99.90;;;;;;4978344;28;20211;-90
2023/04/23 21:54:49;;;;;;;10.60;3.03;;;12.00;99.90;;;;;;4978184;28;20215;-91
2023/04/23 21:57:20;;;;;;;12.83;3.00;;;12.10;99.90;;;;;;4978050;28;20628;-91
2023/04/23 21:59:52;;;;;;;9.93;2.73;;;11.90;99.90;;;;;;4975507;28;20226;-90
2023/04/23 22:02:24;;;;;;;13.83;3.53;;;12.00;99.90;;;;;;4977729;28;20219;-90
2023/04/23 22:04:56;;;;;;;7.33;2.60;;;11.90;99.90;;;;;;4977144;28;20246;-91
2023/04/23 22:07:28;;;;;;;9.63;2.67;;;11.80;99.90;;;;;;4976972;28;20215;-90
2023/04/23 22:10:02;;;;;;;11.13;2.40;;;11.80;99.90;;;;;;4977092;28;20282;-90
2023/04/23 22:12:33;;;;;;;12.07;2.80;;;11.80;99.90;;;;;;4977863;28;20249;-91
2023/04/23 22:15:07;;;;;;;12.43;2.77;;;11.80;99.90;;;;;;4977003;28;20215;-90
2023/04/23 22:17:39;;;;;;;11.60;2.67;;;11.80;99.90;;;;;;4976223;28;20203;-91
2023/04/23 22:20:13;;;;;;;11.73;3.63;;;12.00;99.90;;;;;;4975769;28;20242;-89
2023/04/23 22:22:44;;;;;;;11.80;2.73;;;12.20;99.90;;;;;;4977143;28;20640;-91
2023/04/23 22:25:18;;;;;;;11.03;3.00;;;12.20;99.90;;;;;;4977197;28;20258;-90
2023/04/23 22:27:50;;;;;;;13.70;2.90;;;12.20;99.90;;;;;;4976350;28;20210;-90
2023/04/23 22:30:22;;;;;;;7.93;3.00;;;12.10;99.90;;;;;;4978703;28;20215;-91
2023/04/23 22:32:53;;;;;;;10.80;2.93;;;12.10;99.90;;;;;;4958084;28;20283;-91
2023/04/23 22:35:24;;;;;;;16.57;3.90;;;12.00;99.90;;;;;;4957736;29;20230;-91